Time;durP1;ratioP1;P1;durP2;ratioP2;P2;SDS_P1;SDS_P2;PMS_P1;PMS_P2;Temp;Humidity;BMP_temperature;BMP_pressure;BME280_temperature;BME280_humidity;BME280_pressure;Samples;Min_cycle;Max_cycle;Signal;HPM_P1;HPM_P2
2022/05/07 00:01:54;;;;;;;9.25;5.22;;;;;;;17.30;69.74;101414.91;5032664;28;20026;-85
2022/05/07 00:04:19;;;;;;;12.60;5.70;;;;;;;17.17;70.50;101406.25;5032582;28;20035;-85
2022/05/07 00:06:44;;;;;;;8.10;5.25;;;;;;;17.23;70.40;101397.78;5032473;28;20028;-85
2022/05/07 00:09:10;;;;;;;9.10;5.60;;;;;;;17.20;70.38;101398.03;5032778;28;20029;-85
2022/05/07 00:11:35;;;;;;;10.93;5.32;;;;;;;17.29;70.07;101393.81;5032128;28;20029;-85
2022/05/07 00:14:00;;;;;;;14.32;5.38;;;;;;;17.07;70.45;101394.69;5032341;28;20026;-85
2022/05/07 00:19:10;;;;;;;14.95;6.07;;;;;;;16.93;71.19;101391.31;5032091;28;20502;-85
2022/05/07 00:21:35;;;;;;;10.77;6.07;;;;;;;16.93;71.13;101395.78;5032045;28;20021;-86
2022/05/07 00:24:02;;;;;;;14.63;6.55;;;;;;;17.04;70.58;101387.78;5030883;28;20025;-85
2022/05/07 00:26:28;;;;;;;7.85;5.68;;;;;;;17.14;70.69;101390.56;5032176;28;20025;-85
2022/05/07 00:28:53;;;;;;;11.32;6.35;;;;;;;16.92;70.99;101389.63;5032030;28;20391;-85
2022/05/07 00:31:18;;;;;;;9.80;5.65;;;;;;;17.08;70.86;101396.34;5031770;28;20468;-85
2022/05/07 00:33:43;;;;;;;11.63;6.85;;;;;;;17.17;70.28;101395.63;5032094;28;20026;-85
2022/05/07 00:36:09;;;;;;;10.85;6.80;;;;;;;16.92;70.78;101386.97;5031969;28;20464;-85
2022/05/07 00:38:34;;;;;;;12.68;6.10;;;;;;;17.00;70.55;101389.88;5031762;28;20551;-86
2022/05/07 00:40:59;;;;;;;8.93;6.25;;;;;;;17.02;70.59;101387.94;5031906;28;20024;-85
2022/05/07 00:43:25;;;;;;;10.75;6.20;;;;;;;16.92;71.23;101391.44;5032160;28;20037;-85
2022/05/07 00:45:53;;;;;;;9.90;5.22;;;;;;;16.94;71.03;101395.66;5031649;28;20033;-85
2022/05/07 00:48:19;;;;;;;9.15;6.55;;;;;;;16.86;71.34;101387.44;5030818;28;20104;-85
2022/05/07 00:53:30;;;;;;;13.05;7.00;;;;;;;16.91;70.15;101384.44;5032088;28;20040;-85
2022/05/07 00:55:55;;;;;;;11.20;6.18;;;;;;;17.09;70.01;101387.44;5031654;28;20109;-85
2022/05/07 00:58:22;;;;;;;12.70;7.57;;;;;;;17.04;69.60;101386.00;5031594;28;20083;-85
2022/05/07 01:00:47;;;;;;;9.13;7.10;;;;;;;17.11;69.34;101386.34;5031574;28;20021;-85
2022/05/07 01:03:13;;;;;;;10.98;8.50;;;;;;;16.79;70.37;101388.88;5031681;28;20040;-85
2022/05/07 01:05:39;;;;;;;11.18;7.38;;;;;;;17.03;69.23;101391.44;5031626;28;20048;-85
2022/05/07 01:08:06;;;;;;;8.55;6.63;;;;;;;17.03;69.24;101392.25;5031563;28;20467;-85
2022/05/07 01:10:32;;;;;;;9.40;7.20;;;;;;;17.05;69.24;101382.38;5030278;28;20030;-85
2022/05/07 01:12:57;;;;;;;12.00;7.03;;;;;;;17.03;69.35;101389.63;5031625;28;20087;-84
2022/05/07 01:15:23;;;;;;;9.23;6.85;;;;;;;17.05;69.08;101392.16;5031593;28;20026;-85
2022/05/07 01:17:48;;;;;;;8.77;7.10;;;;;;;16.88;69.04;101385.50;5031467;28;20057;-85
2022/05/07 01:20:14;;;;;;;17.52;8.07;;;;;;;16.63;70.12;101386.59;5031876;28;20053;-85
2022/05/07 01:22:41;;;;;;;13.80;8.10;;;;;;;16.75;69.87;101395.41;5030159;28;20476;-85
2022/05/07 01:25:07;;;;;;;11.02;7.90;;;;;;;16.70;69.89;101389.59;5031642;28;20025;-85
2022/05/07 01:27:32;;;;;;;11.77;7.28;;;;;;;16.77;69.87;101386.34;5030351;28;20032;-85
2022/05/07 01:29:58;;;;;;;13.77;8.63;;;;;;;16.59;70.24;101387.78;5031168;28;20030;-85
2022/05/07 01:32:23;;;;;;;11.32;7.32;;;;;;;16.71;69.81;101393.94;5031783;28;20030;-85
2022/05/07 01:34:49;;;;;;;14.13;7.53;;;;;;;16.60;70.37;101392.94;5031521;28;20029;-85
2022/05/07 01:37:14;;;;;;;11.68;8.57;;;;;;;16.59;69.79;101391.28;5031212;28;20079;-85
2022/05/07 01:39:39;;;;;;;9.90;7.57;;;;;;;16.64;70.12;101397.06;5031297;28;20383;-84
2022/05/07 01:42:05;;;;;;;13.10;7.80;;;;;;;16.68;70.40;101399.47;5031375;28;20494;-84
2022/05/07 01:44:31;;;;;;;14.15;7.93;;;;;;;16.65;69.90;101393.44;5031491;28;20079;-85
2022/05/07 01:49:41;;;;;;;12.02;7.97;;;;;;;16.60;70.27;101398.25;5031974;28;20040;-85
2022/05/07 01:52:07;;;;;;;12.15;8.55;;;;;;;16.56;70.70;101395.97;5034633;28;20033;-85
2022/05/07 01:54:32;;;;;;;12.75;7.55;;;;;;;16.67;69.97;101398.63;5035092;28;20087;-85
2022/05/07 01:56:58;;;;;;;13.27;8.85;;;;;;;16.64;70.09;101397.06;5034669;28;20029;-85
2022/05/07 01:59:23;;;;;;;11.23;7.95;;;;;;;16.50;70.42;101397.28;5034882;28;20032;-85
2022/05/07 02:01:48;;;;;;;17.80;8.93;;;;;;;16.48;70.72;101398.38;5034817;28;20033;-85
2022/05/07 02:04:14;;;;;;;13.43;8.18;;;;;;;16.53;70.67;101397.06;5033394;28;20033;-85
2022/05/07 02:06:39;;;;;;;13.90;8.48;;;;;;;16.60;70.50;101395.59;5034711;28;20065;-85
2022/05/07 02:09:04;;;;;;;13.15;8.60;;;;;;;16.45;70.23;101386.22;5034634;28;20029;-85
2022/05/07 02:11:29;;;;;;;11.63;9.07;;;;;;;16.43;70.91;101396.94;5034632;28;20040;-85
2022/05/07 02:13:55;;;;;;;13.65;8.40;;;;;;;16.45;70.97;101404.78;5033276;28;20507;-85
2022/05/07 02:16:20;;;;;;;8.98;7.30;;;;;;;16.45;70.90;101402.94;5034401;28;20410;-85
2022/05/07 02:18:45;;;;;;;10.73;7.85;;;;;;;16.50;70.89;101402.59;5034517;28;20486;-85
2022/05/07 02:21:11;;;;;;;8.90;6.25;;;;;;;16.60;69.91;101406.22;5034435;28;20026;-85
2022/05/07 02:23:36;;;;;;;10.25;6.43;;;;;;;16.43;70.57;101406.69;5034320;28;20033;-85
2022/05/07 02:26:02;;;;;;;9.98;6.07;;;;;;;16.36;70.71;101408.13;5034237;28;20387;-85
2022/05/07 02:28:27;;;;;;;8.25;4.85;;;;;;;16.33;70.69;101401.25;5034260;28;20191;-85
2022/05/07 02:30:52;;;;;;;8.18;4.82;;;;;;;16.28;70.50;101414.00;5034200;28;20110;-85
2022/05/07 02:33:18;;;;;;;6.38;3.88;;;;;;;16.13;70.11;101413.34;5034056;28;20033;-85
2022/05/07 02:35:43;;;;;;;6.88;3.80;;;;;;;16.28;69.55;101418.47;5034211;28;20060;-85
2022/05/07 02:38:09;;;;;;;8.82;3.55;;;;;;;16.41;69.37;101411.25;5034055;28;20029;-85
2022/05/07 02:42:33;;;;;;;6.55;3.22;;;;;;;16.48;69.14;101417.78;5034126;28;20053;-85
2022/05/07 02:43:20;;;;;;;5.50;2.90;;;;;;;16.46;68.95;101422.34;5033978;28;20172;-85
2022/05/07 02:45:45;;;;;;;5.72;2.65;;;;;;;16.36;68.79;101419.56;5033912;28;20108;-85
2022/05/07 02:48:10;;;;;;;4.60;2.15;;;;;;;16.36;68.87;101426.66;5033776;28;20472;-85
2022/05/07 02:50:36;;;;;;;2.70;2.10;;;;;;;16.31;68.81;101418.22;5033813;28;20414;-85
2022/05/07 02:53:01;;;;;;;3.08;2.55;;;;;;;16.24;68.97;101418.69;5032398;28;20472;-85
2022/05/07 02:55:26;;;;;;;2.95;1.88;;;;;;;16.28;68.40;101421.94;5033792;28;20033;-85
2022/05/07 02:57:52;;;;;;;3.15;1.80;;;;;;;16.19;68.10;101426.16;5033859;28;20112;-85
2022/05/07 03:00:18;;;;;;;2.25;1.50;;;;;;;16.28;67.97;101432.53;5033768;28;20099;-86
2022/05/07 03:02:43;;;;;;;1.77;1.10;;;;;;;16.26;67.89;101423.88;5033545;28;20260;-85
2022/05/07 03:05:08;;;;;;;3.20;1.50;;;;;;;16.26;68.02;101427.34;5033636;28;20460;-85
2022/05/07 03:07:34;;;;;;;3.05;1.25;;;;;;;16.29;67.91;101425.44;5033546;28;20100;-85
2022/05/07 03:09:59;;;;;;;2.80;1.50;;;;;;;16.30;67.14;101430.63;5033648;28;20097;-85
2022/05/07 03:12:25;;;;;;;3.28;1.55;;;;;;;16.15;67.78;101435.28;5033525;28;20641;-85
2022/05/07 03:14:50;;;;;;;1.50;1.00;;;;;;;16.25;67.84;101440.72;5033441;28;20025;-85
2022/05/07 03:17:17;;;;;;;2.42;1.35;;;;;;;16.12;68.13;101435.50;5033260;28;20456;-85
2022/05/07 03:19:42;;;;;;;1.35;0.85;;;;;;;16.07;68.13;101435.00;5031886;28;20031;-86
2022/05/07 03:22:08;;;;;;;1.73;1.15;;;;;;;16.19;67.96;101427.94;5033260;28;20026;-85
2022/05/07 03:24:37;;;;;;;2.63;1.48;;;;;;;16.12;68.34;101430.22;5033349;28;20171;-85
2022/05/07 03:27:03;;;;;;;2.28;1.10;;;;;;;16.18;67.66;101437.69;5033335;28;20048;-85
2022/05/07 03:29:29;;;;;;;3.00;1.30;;;;;;;16.22;67.73;101435.66;5033822;28;20025;-85
2022/05/07 03:31:54;;;;;;;2.88;1.17;;;;;;;16.20;67.81;101438.41;5047303;28;20573;-85
2022/05/07 03:34:20;;;;;;;1.95;1.40;;;;;;;16.20;67.57;101437.59;5052748;28;20025;-85
2022/05/07 03:36:45;;;;;;;0.75;0.68;;;;;;;16.02;67.63;101429.22;5053167;28;20075;-85
2022/05/07 03:39:13;;;;;;;6.68;0.90;;;;;;;16.19;67.71;101442.06;5053056;28;20033;-85
2022/05/07 03:41:38;;;;;;;1.13;0.70;;;;;;;16.22;67.63;101441.81;5052924;28;20025;-85
2022/05/07 03:44:04;;;;;;;2.28;0.95;;;;;;;16.28;67.41;101444.97;5052770;28;20074;-85
2022/05/07 03:46:29;;;;;;;1.20;0.85;;;;;;;16.23;67.70;101446.16;5052618;28;20062;-85
2022/05/07 03:48:55;;;;;;;2.92;0.95;;;;;;;16.20;68.00;101449.03;5052939;28;20032;-85
2022/05/07 03:51:21;;;;;;;1.48;1.00;;;;;;;16.06;67.93;101443.91;5052495;28;20025;-85
2022/05/07 03:53:46;;;;;;;2.10;0.80;;;;;;;15.90;69.35;101446.88;5051450;28;20486;-85
2022/05/07 03:56:11;;;;;;;2.83;1.15;;;;;;;15.95;69.23;101441.22;5051193;28;20433;-85
2022/05/07 03:58:37;;;;;;;3.42;1.40;;;;;;;15.88;69.55;101447.91;5052365;28;20025;-85
2022/05/07 04:01:03;;;;;;;3.58;1.38;;;;;;;15.73;69.51;101444.59;5052233;28;20583;-84
2022/05/07 04:03:30;;;;;;;2.45;1.20;;;;;;;15.64;70.12;101451.41;5051236;28;20099;-85
2022/05/07 04:05:56;;;;;;;1.52;1.10;;;;;;;15.75;69.99;101459.41;5052160;28;20037;-85
2022/05/07 04:08:23;;;;;;;1.05;0.93;;;;;;;15.74;69.32;101457.75;5052242;28;20495;-85
2022/05/07 04:10:49;;;;;;;4.15;1.00;;;;;;;15.85;69.54;101460.44;5052206;28;20471;-85
2022/05/07 04:13:15;;;;;;;2.33;1.10;;;;;;;15.55;69.98;101462.63;5051685;28;20021;-85
2022/05/07 04:15:43;;;;;;;1.45;0.95;;;;;;;15.63;69.40;101469.06;5052301;28;20029;-85
2022/05/07 04:18:09;;;;;;;5.70;1.17;;;;;;;15.46;70.44;101466.78;5052070;28;20055;-85
2022/05/07 04:20:35;;;;;;;2.00;1.10;;;;;;;15.64;69.77;101470.75;5051991;28;20064;-85
2022/05/07 04:23:01;;;;;;;2.80;1.00;;;;;;;15.70;69.87;101482.72;5052003;28;20029;-85
2022/05/07 04:25:26;;;;;;;2.97;1.02;;;;;;;15.78;69.18;101476.91;5052141;28;20025;-85
2022/05/07 04:27:53;;;;;;;2.25;1.00;;;;;;;15.73;69.58;101469.28;5051946;28;20104;-85
2022/05/07 04:30:19;;;;;;;2.17;1.40;;;;;;;15.56;70.24;101469.63;5050730;28;20021;-85
2022/05/07 04:32:45;;;;;;;2.25;1.80;;;;;;;15.50;70.09;101473.56;5051973;28;20032;-85
2022/05/07 04:35:10;;;;;;;2.10;1.40;;;;;;;15.61;69.54;101478.06;5050800;28;20029;-85
2022/05/07 04:37:35;;;;;;;2.47;1.00;;;;;;;15.79;69.13;101481.22;5051673;28;20078;-85
2022/05/07 04:40:01;;;;;;;1.98;1.50;;;;;;;15.86;69.02;101474.53;5051894;28;20064;-85
2022/05/07 04:42:26;;;;;;;1.70;1.25;;;;;;;15.60;69.16;101476.38;5052093;28;20032;-85
2022/05/07 04:44:52;;;;;;;1.98;1.38;;;;;;;15.77;69.19;101472.53;5051783;28;20031;-85
2022/05/07 04:47:17;;;;;;;2.75;1.48;;;;;;;15.80;68.82;101473.19;5051826;28;20108;-85
2022/05/07 04:49:43;;;;;;;2.92;1.80;;;;;;;15.56;69.53;101474.91;5051885;28;20028;-85
2022/05/07 04:52:10;;;;;;;2.85;2.13;;;;;;;15.60;69.35;101471.06;5051415;28;20032;-85
2022/05/07 04:54:35;;;;;;;3.40;1.77;;;;;;;15.36;69.42;101478.97;5051634;28;20025;-85
2022/05/07 04:57:01;;;;;;;3.70;2.60;;;;;;;15.41;69.98;101472.41;5051397;28;20075;-85
2022/05/07 04:59:26;;;;;;;4.90;2.20;;;;;;;15.49;69.41;101484.25;5051595;28;20035;-85
2022/05/07 05:01:52;;;;;;;2.95;1.88;;;;;;;15.24;69.90;101486.84;5051320;28;20013;-85
2022/05/07 05:04:18;;;;;;;3.53;2.08;;;;;;;15.40;69.71;101477.81;5051728;28;20241;-85
2022/05/07 05:06:43;;;;;;;4.20;2.40;;;;;;;15.15;70.17;101492.78;5051693;28;20111;-85
2022/05/07 05:09:09;;;;;;;3.78;2.22;;;;;;;15.28;69.08;101492.75;5051579;28;20115;-85
2022/05/07 05:11:35;;;;;;;2.63;2.10;;;;;;;15.25;69.37;101499.13;5051427;28;20037;-85
2022/05/07 05:14:00;;;;;;;2.33;1.73;;;;;;;15.35;69.34;101499.31;5051486;28;20020;-85
2022/05/07 05:16:27;;;;;;;3.45;2.55;;;;;;;15.47;68.45;101506.38;5051251;28;20364;-85
2022/05/07 05:18:52;;;;;;;3.03;2.20;;;;;;;15.17;68.98;101516.50;5051496;28;20102;-85
2022/05/07 05:21:18;;;;;;;4.68;2.13;;;;;;;15.34;68.40;101510.00;5051448;28;20475;-85
2022/05/07 05:23:46;;;;;;;4.70;2.53;;;;;;;15.57;67.88;101513.66;5051501;28;20029;-85
2022/05/07 05:26:12;;;;;;;4.15;2.30;;;;;;;15.72;67.44;101517.88;5053280;28;20028;-85
2022/05/07 05:28:39;;;;;;;3.90;2.47;;;;;;;15.50;68.03;101517.69;5055177;28;20024;-85
2022/05/07 05:31:05;;;;;;;5.40;2.40;;;;;;;15.81;67.02;101517.22;5055354;28;20390;-85
2022/05/07 05:33:31;;;;;;;5.32;3.15;;;;;;;15.74;67.02;101518.63;5055234;28;20023;-85
2022/05/07 05:35:56;;;;;;;5.40;2.58;;;;;;;15.70;67.08;101517.13;5049435;28;20026;-85
2022/05/07 05:38:22;;;;;;;6.13;2.30;;;;;;;15.85;66.45;101517.84;5047406;28;20029;-85
2022/05/07 05:40:47;;;;;;;4.82;2.38;;;;;;;15.47;67.76;101526.72;5054981;28;20104;-85
2022/05/07 05:43:12;;;;;;;4.18;2.45;;;;;;;15.53;67.83;101533.38;5035794;28;20029;-85
2022/05/07 05:45:38;;;;;;;5.35;2.53;;;;;;;15.61;67.22;101536.31;5035022;28;20022;-85
2022/05/07 05:48:04;;;;;;;5.28;2.65;;;;;;;15.39;67.63;101542.28;5034968;28;20037;-85
2022/05/07 05:50:30;;;;;;;4.55;2.63;;;;;;;15.68;66.64;101545.53;5034775;28;20040;-85
2022/05/07 05:52:56;;;;;;;4.75;2.40;;;;;;;15.84;66.28;101543.50;5044344;28;20026;-85
2022/05/07 05:55:22;;;;;;;3.45;2.50;;;;;;;15.84;66.07;101547.94;5033822;28;20318;-85
2022/05/07 05:57:48;;;;;;;6.45;2.47;;;;;;;15.72;66.62;101549.66;5033976;28;20037;-85
2022/05/07 06:00:14;;;;;;;3.72;2.17;;;;;;;15.61;67.08;101555.69;5033909;28;20017;-85
2022/05/07 06:02:43;;;;;;;4.53;2.60;;;;;;;15.50;67.22;101563.56;5033884;28;20035;-85
2022/05/07 06:05:08;;;;;;;4.47;2.38;;;;;;;15.39;68.42;101561.66;5034062;28;20025;-85
2022/05/07 06:07:34;;;;;;;5.10;2.25;;;;;;;15.54;67.72;101566.81;5034719;28;20395;-85
2022/05/07 06:09:59;;;;;;;3.72;2.80;;;;;;;15.24;68.48;101562.72;5039761;28;20037;-85
2022/05/07 06:12:24;;;;;;;4.43;2.42;;;;;;;15.41;68.23;101574.78;5032371;28;20059;-85
2022/05/07 06:14:54;;;;;;;3.70;2.47;;;;;;;15.75;66.95;101570.63;5033871;28;20108;-83
2022/05/07 06:17:19;;;;;;;2.70;2.50;;;;;;;15.82;66.95;101571.88;5037253;28;21044;-84
2022/05/07 06:19:44;;;;;;;7.82;2.90;;;;;;;15.65;67.21;101566.91;5047762;28;20447;-84
2022/05/07 06:22:10;;;;;;;3.33;2.70;;;;;;;15.50;67.85;101574.16;5052070;28;20384;-84
2022/05/07 06:27:28;;;;;;;5.15;2.75;;;;;;;15.86;66.76;101573.38;5053306;28;20032;-83
2022/05/07 06:29:58;;;;;;;4.95;2.45;;;;;;;16.44;65.68;101567.41;5045637;28;20538;-83
2022/05/07 06:32:29;;;;;;;6.07;2.75;;;;;;;17.49;61.99;101570.91;5045397;28;20538;-84
2022/05/07 06:34:55;;;;;;;8.75;3.25;;;;;;;18.33;58.91;101568.63;5037180;28;20468;-84
2022/05/07 06:37:20;;;;;;;2.58;1.67;;;;;;;18.99;57.49;101564.94;5035977;28;20087;-84
2022/05/07 06:39:45;;;;;;;3.45;1.88;;;;;;;19.93;54.74;101562.16;5037561;28;20364;-84
2022/05/07 06:42:11;;;;;;;4.35;1.23;;;;;;;20.28;53.69;101571.44;5036123;28;20032;-83
2022/05/07 06:44:36;;;;;;;4.07;1.63;;;;;;;20.93;52.23;101569.03;5044921;28;20033;-83
2022/05/07 06:47:02;;;;;;;5.97;1.83;;;;;;;22.06;49.49;101567.19;5047724;28;20051;-83
2022/05/07 06:49:28;;;;;;;3.50;1.60;;;;;;;21.71;49.50;101575.00;5035375;28;20510;-84
2022/05/07 06:51:53;;;;;;;4.03;1.42;;;;;;;21.96;49.13;101572.63;5033050;28;20029;-84
2022/05/07 06:54:20;;;;;;;6.25;1.70;;;;;;;21.83;48.85;101566.78;5033872;28;20033;-83
2022/05/07 06:56:47;;;;;;;7.32;1.50;;;;;;;21.86;48.75;101566.47;5037225;28;20059;-84
2022/05/07 06:59:12;;;;;;;2.95;1.13;;;;;;;22.51;47.93;101577.88;5053630;28;20029;-84
2022/05/07 07:01:38;;;;;;;3.80;1.40;;;;;;;22.54;47.57;101571.34;5043964;28;20118;-83
2022/05/07 07:04:04;;;;;;;3.65;1.02;;;;;;;22.84;46.79;101575.44;5042311;28;20029;-84
2022/05/07 07:06:29;;;;;;;3.45;1.40;;;;;;;22.80;45.89;101579.41;5042701;28;20939;-84
2022/05/07 07:08:55;;;;;;;3.33;1.30;;;;;;;23.82;44.59;101577.88;5040825;28;20029;-84
2022/05/07 07:11:20;;;;;;;3.83;1.42;;;;;;;23.78;44.35;101581.88;5048111;28;20028;-84
2022/05/07 07:13:46;;;;;;;2.53;1.15;;;;;;;24.68;42.76;101586.56;5049780;28;20375;-84
2022/05/07 07:16:12;;;;;;;2.85;1.52;;;;;;;24.31;42.38;101585.19;5047087;28;20090;-83
2022/05/07 07:18:37;;;;;;;2.00;1.10;;;;;;;25.13;41.67;101591.38;5049461;28;20036;-83
2022/05/07 07:21:03;;;;;;;1.98;1.20;;;;;;;25.36;40.48;101589.84;5045257;28;20120;-83
2022/05/07 07:23:28;;;;;;;3.65;1.55;;;;;;;25.22;41.28;101589.56;5049420;28;20097;-84
2022/05/07 07:25:53;;;;;;;3.38;0.93;;;;;;;25.14;41.09;101592.22;5048308;28;20052;-84
2022/05/07 07:28:19;;;;;;;3.40;1.38;;;;;;;25.47;40.56;101600.22;5048967;28;20060;-84
2022/05/07 07:30:44;;;;;;;5.25;1.67;;;;;;;25.17;41.07;101591.88;5048911;28;20059;-84
2022/05/07 07:33:12;;;;;;;3.22;1.20;;;;;;;26.05;39.71;101600.84;5048528;28;20056;-84
2022/05/07 07:35:37;;;;;;;4.55;1.17;;;;;;;26.39;39.39;101605.81;5041772;28;20280;-84
2022/05/07 07:38:03;;;;;;;5.57;1.45;;;;;;;26.61;38.64;101596.06;5044269;28;20399;-84
2022/05/07 07:40:29;;;;;;;2.63;1.10;;;;;;;27.07;38.96;101600.53;5033654;28;20075;-84
2022/05/07 07:42:54;;;;;;;4.47;1.50;;;;;;;27.78;36.96;101600.09;5045643;28;20037;-84
2022/05/07 07:48:04;;;;;;;2.00;0.85;;;;;;;28.39;35.74;101605.13;5043396;28;20063;-84
2022/05/07 07:50:32;;;;;;;4.40;1.08;;;;;;;28.42;35.33;101602.06;5039052;28;20487;-85
2022/05/07 07:53:00;;;;;;;3.00;1.20;;;;;;;29.38;34.68;101593.47;5032144;28;20052;-84
2022/05/07 07:55:27;;;;;;;1.67;0.68;;;;;;;30.32;32.13;101598.22;5034858;28;20029;-85
2022/05/07 07:57:57;;;;;;;1.45;0.70;;;;;;;30.54;32.21;101595.31;5045231;28;20083;-84
2022/05/07 08:00:24;;;;;;;1.70;0.85;;;;;;;31.01;31.62;101602.41;5041602;28;20062;-84
2022/05/07 08:02:58;;;;;;;3.28;0.95;;;;;;;30.72;31.92;101600.09;5051031;28;20016;-84
2022/05/07 08:05:25;;;;;;;4.28;1.08;;;;;;;30.25;31.98;101610.88;5048717;28;20025;-84
2022/05/07 08:13:19;;;;;;;5.60;1.08;;;;;;;30.91;30.86;101614.75;5032812;28;20032;-84
2022/05/07 08:15:48;;;;;;;2.17;0.80;;;;;;;31.71;30.07;101619.97;5049860;28;20029;-84
2022/05/07 08:18:14;;;;;;;3.15;1.23;;;;;;;31.57;30.11;101620.03;5037162;28;20033;-84
2022/05/07 08:20:43;;;;;;;3.17;1.27;;;;;;;30.68;30.97;101621.38;5039178;28;20095;-82
2022/05/07 08:23:10;;;;;;;3.22;1.20;;;;;;;29.91;32.04;101626.19;5044387;28;20025;-83
2022/05/07 08:25:36;;;;;;;11.15;1.92;;;;;;;30.28;31.24;101623.19;5043467;28;20029;-82
2022/05/07 08:28:03;;;;;;;6.28;1.90;;;;;;;29.42;33.04;101625.34;5035568;28;20091;-83
2022/05/07 08:30:28;;;;;;;3.83;1.30;;;;;;;31.43;30.96;101619.19;5038838;28;20078;-82
2022/05/07 08:32:53;;;;;;;2.55;1.05;;;;;;;31.72;30.39;101610.78;5035839;28;20037;-83
2022/05/07 08:35:20;;;;;;;2.97;1.05;;;;;;;30.99;31.50;101612.63;5040116;28;20022;-83
2022/05/07 08:37:46;;;;;;;3.65;1.13;;;;;;;31.41;30.96;101615.88;5048140;28;20040;-83
2022/05/07 08:40:16;;;;;;;3.53;1.20;;;;;;;31.66;29.92;101615.19;5041835;28;20032;-84
2022/05/07 08:42:41;;;;;;;3.45;1.05;;;;;;;31.21;30.08;101610.50;5034869;28;20044;-83
2022/05/07 08:45:07;;;;;;;4.32;0.95;;;;;;;31.88;29.76;101599.41;5033636;28;20482;-83
2022/05/07 08:47:33;;;;;;;3.92;1.42;;;;;;;29.78;31.31;101607.19;5045228;28;20063;-83
2022/05/07 08:49:58;;;;;;;2.92;1.00;;;;;;;31.56;30.24;101606.69;5047274;28;20444;-82
2022/05/07 08:52:24;;;;;;;3.63;1.25;;;;;;;30.97;30.44;101603.88;5032667;28;20534;-82
2022/05/07 08:54:50;;;;;;;2.28;1.10;;;;;;;30.86;30.33;101603.66;5042842;28;20025;-82
2022/05/07 08:57:15;;;;;;;3.80;1.08;;;;;;;32.04;29.61;101600.81;5039625;28;20044;-82
2022/05/07 08:59:43;;;;;;;3.03;0.90;;;;;;;32.89;28.58;101607.75;5041238;28;20159;-81
2022/05/07 09:02:09;;;;;;;2.20;1.02;;;;;;;31.40;29.45;101611.50;5057161;28;20124;-81
2022/05/07 09:04:36;;;;;;;3.10;0.70;;;;;;;31.31;29.65;101603.81;5043059;28;20091;-81
2022/05/07 09:07:04;;;;;;;2.30;1.05;;;;;;;31.98;29.14;101605.22;5045090;28;20028;-81
2022/05/07 09:09:33;;;;;;;2.15;0.88;;;;;;;30.98;29.37;101597.38;5057024;28;20055;-81
2022/05/07 09:11:58;;;;;;;4.57;1.25;;;;;;;31.71;29.11;101603.69;5056953;28;20029;-81
2022/05/07 09:14:31;;;;;;;2.70;0.98;;;;;;;32.10;28.64;101590.97;5046210;28;20033;-82
2022/05/07 09:17:00;;;;;;;1.17;0.55;;;;;;;32.25;28.34;101599.66;5037681;28;20479;-81
2022/05/07 09:19:31;;;;;;;2.58;1.13;;;;;;;31.01;29.18;101594.25;5037581;28;20542;-82
2022/05/07 09:22:09;;;;;;;4.93;1.07;;;;;;;32.41;27.20;101596.38;5046493;28;20034;-81
2022/05/07 09:24:35;;;;;;;4.20;0.80;;;;;;;32.64;27.57;101600.41;5040174;28;20035;-81
2022/05/07 09:27:03;;;;;;;0.98;0.55;;;;;;;31.01;29.23;101604.28;5046772;28;20099;-81
2022/05/07 09:29:29;;;;;;;2.50;1.00;;;;;;;31.80;28.98;101607.81;5057563;28;20021;-82
2022/05/07 09:31:55;;;;;;;2.67;1.15;;;;;;;32.44;28.11;101603.25;5041873;28;20064;-81
2022/05/07 09:37:20;;;;;;;3.90;1.10;;;;;;;34.52;25.56;101613.44;5057985;28;20039;-83
2022/05/07 09:39:52;;;;;;;2.38;0.68;;;;;;;34.56;25.02;101606.50;5055360;28;20044;-82
2022/05/07 09:42:24;;;;;;;2.55;0.82;;;;;;;33.48;25.63;101609.00;5048820;28;20491;-82
2022/05/07 09:44:49;;;;;;;4.15;0.77;;;;;;;33.96;25.60;101610.91;5037855;28;20029;-82
2022/05/07 09:47:15;;;;;;;2.67;0.70;;;;;;;32.87;26.87;101601.69;5037524;28;20028;-82
2022/05/07 09:50:20;;;;;;;4.32;1.48;;;;;;;33.20;26.47;101601.38;5041528;28;20101;-82
2022/05/07 09:52:29;;;;;;;2.40;0.60;;;;;;;33.40;26.25;101606.59;5052050;28;20082;-82
2022/05/07 09:57:39;;;;;;;2.22;0.60;;;;;;;33.23;25.63;101600.09;5046846;28;20037;-81
2022/05/07 10:00:07;;;;;;;1.77;0.50;;;;;;;33.91;24.96;101590.91;5059316;28;20018;-81
2022/05/07 10:03:20;;;;;;;1.35;0.30;;;;;;;33.87;24.81;101595.97;5037364;28;20059;-82
2022/05/07 10:05:51;;;;;;;3.95;0.70;;;;;;;34.63;24.90;101593.56;5034365;28;20052;-82
2022/05/07 10:08:30;;;;;;;1.30;0.60;;;;;;;34.64;24.52;101588.91;5036136;28;20388;-82
2022/05/07 10:10:57;;;;;;;1.35;0.50;;;;;;;33.67;25.34;101589.94;5052111;28;20511;-82
2022/05/07 10:13:23;;;;;;;6.15;0.82;;;;;;;34.10;24.84;101583.47;5054344;28;20032;-82
2022/05/07 10:15:59;;;;;;;4.30;0.88;;;;;;;33.30;25.59;101595.41;5054264;28;20108;-82
2022/05/07 10:18:33;;;;;;;4.82;0.85;;;;;;;33.27;25.80;101584.97;5051352;28;20025;-82
2022/05/07 10:21:11;;;;;;;1.70;0.40;;;;;;;34.57;23.58;101591.78;5051294;28;20394;-82
2022/05/07 10:23:38;;;;;;;2.92;0.70;;;;;;;34.34;24.26;101585.25;5050911;28;20112;-82
2022/05/07 10:26:04;;;;;;;2.47;0.70;;;;;;;34.24;24.50;101600.50;5054076;28;20025;-83
2022/05/07 10:28:42;;;;;;;1.20;0.45;;;;;;;34.71;24.47;101579.59;5053753;28;20446;-82
2022/05/07 10:31:20;;;;;;;3.80;0.70;;;;;;;34.32;24.65;101587.38;5042148;28;20512;-82
2022/05/07 10:33:47;;;;;;;2.25;0.50;;;;;;;34.93;24.21;101587.19;5042504;28;20025;-82
2022/05/07 10:36:14;;;;;;;3.00;0.95;;;;;;;35.67;23.38;101586.59;5034062;28;20037;-82
2022/05/07 10:38:42;;;;;;;1.50;0.32;;;;;;;35.44;23.84;101582.84;5037475;28;20087;-82
2022/05/07 10:41:16;;;;;;;3.25;0.40;;;;;;;34.78;24.60;101578.63;5040911;28;20087;-83
2022/05/07 10:44:04;;;;;;;3.20;0.88;;;;;;;34.30;24.85;101588.66;5049257;28;20501;-82
2022/05/07 10:46:43;;;;;;;2.17;0.50;;;;;;;33.78;24.69;101581.81;5036710;28;20060;-83
2022/05/07 10:49:09;;;;;;;3.13;0.55;;;;;;;34.80;24.88;101582.81;5048263;28;20056;-83
2022/05/07 10:51:36;;;;;;;4.70;0.77;;;;;;;34.02;25.41;101589.25;5034266;28;20514;-83
2022/05/07 10:54:15;;;;;;;2.67;0.80;;;;;;;33.64;24.97;101582.25;5046330;28;20021;-82
2022/05/07 10:56:47;;;;;;;1.30;0.28;;;;;;;34.46;22.84;101577.06;5046989;28;20052;-83
2022/05/07 10:59:13;;;;;;;1.20;0.40;;;;;;;35.88;22.35;101587.81;5033770;28;20538;-82
2022/05/07 11:01:39;;;;;;;4.28;0.70;;;;;;;34.48;22.95;101587.72;5042960;28;20043;-83
2022/05/07 11:04:06;;;;;;;4.28;0.50;;;;;;;34.59;23.48;101586.09;5052377;28;20091;-82
2022/05/07 11:06:43;;;;;;;2.33;0.45;;;;;;;35.08;23.00;101579.34;5043617;28;20144;-82
2022/05/07 11:09:16;;;;;;;0.73;0.25;;;;;;;35.91;22.05;101582.69;5032586;28;20030;-82
2022/05/07 11:11:44;;;;;;;1.02;0.40;;;;;;;34.88;22.11;101581.63;5034949;28;20037;-82
2022/05/07 11:14:11;;;;;;;2.22;0.63;;;;;;;35.26;23.72;101583.84;5037872;28;20076;-82
2022/05/07 11:16:41;;;;;;;2.67;0.50;;;;;;;35.23;23.74;101588.94;5050818;28;20021;-83
2022/05/07 11:19:07;;;;;;;3.50;0.70;;;;;;;34.55;23.74;101591.19;5035276;28;20025;-82
2022/05/07 11:21:36;;;;;;;2.50;0.80;;;;;;;34.79;22.81;101572.13;5036880;28;20029;-82
2022/05/07 11:24:01;;;;;;;2.20;0.40;;;;;;;33.45;24.47;101582.22;5047851;28;20083;-83
2022/05/07 11:26:27;;;;;;;3.17;0.50;;;;;;;34.13;24.46;101577.56;5038006;28;20025;-82
2022/05/07 11:28:53;;;;;;;14.93;0.80;;;;;;;33.57;23.74;101580.41;5050838;28;20021;-82
2022/05/07 11:31:29;;;;;;;5.40;0.60;;;;;;;33.80;23.89;101575.34;5044706;28;20053;-82
2022/05/07 11:34:02;;;;;;;3.63;0.50;;;;;;;35.01;23.78;101578.63;5046529;28;20025;-82
2022/05/07 11:36:28;;;;;;;2.70;0.30;;;;;;;35.53;22.00;101575.09;5031656;28;20028;-83
2022/05/07 11:39:02;;;;;;;0.88;0.40;;;;;;;35.86;21.59;101577.13;5032686;28;20034;-82
2022/05/07 11:41:29;;;;;;;1.98;0.28;;;;;;;36.23;21.38;101579.44;5031946;28;20167;-83
2022/05/07 11:46:55;;;;;;;1.80;0.43;;;;;;;36.41;21.35;101575.63;5038742;28;20078;-83
2022/05/07 11:49:34;;;;;;;1.58;0.30;;;;;;;36.05;20.92;101579.66;5035838;28;20096;-82
2022/05/07 11:52:10;;;;;;;1.85;0.50;;;;;;;36.28;21.61;101576.78;5033546;28;20383;-83